Terminal Aerodrome Forecast
Issued by NWS Charleston, WV

Current Version | Previous Version | Text Only | Print | Product List | Glossary Off
Versions: 1 2 3 4 5 6 7 8 9 10 11 12 13 14 15 16 17 18 19 20 21 22 23 24

000
FTUS41 KRLX 160300 AAA
TAFCRW
TAF AMD
KCRW 160302Z 1603/1624 00000KT P6SM FEW250
     FM160800 VRB03KT 5SM -SHRA OVC035
     FM161400 18005KT P6SM OVC030
     FM161700 24009G16KT P6SM VCSH OVC025=

USA.gov is the U.S. government's official web portal to all federal, state and local government web resources and services.